sensor_id;sensor_type;location;lat;lon;timestamp;P1;durP1;ratioP1;P2;durP2;ratioP2
52274;SDS011;38228;50.940;4.024;2023-08-17T00:01:27;6.00;;;4.25;;
52274;SDS011;38228;50.940;4.024;2023-08-17T00:03:52;6.75;;;4.60;;
52274;SDS011;38228;50.940;4.024;2023-08-17T00:06:18;7.55;;;4.53;;
52274;SDS011;38228;50.940;4.024;2023-08-17T00:08:44;7.82;;;4.82;;
52274;SDS011;38228;50.940;4.024;2023-08-17T00:11:09;8.93;;;5.10;;
52274;SDS011;38228;50.940;4.024;2023-08-17T00:13:35;9.55;;;4.85;;
52274;SDS011;38228;50.940;4.024;2023-08-17T00:16:01;9.75;;;5.15;;
52274;SDS011;38228;50.940;4.024;2023-08-17T00:18:27;7.03;;;5.30;;
52274;SDS011;38228;50.940;4.024;2023-08-17T00:20:52;6.93;;;5.13;;
52274;SDS011;38228;50.940;4.024;2023-08-17T00:23:18;9.40;;;5.53;;
52274;SDS011;38228;50.940;4.024;2023-08-17T00:25:45;8.77;;;5.40;;
52274;SDS011;38228;50.940;4.024;2023-08-17T00:28:12;8.60;;;5.30;;
52274;SDS011;38228;50.940;4.024;2023-08-17T00:30:39;7.45;;;5.50;;
52274;SDS011;38228;50.940;4.024;2023-08-17T00:33:05;9.57;;;5.82;;
52274;SDS011;38228;50.940;4.024;2023-08-17T00:35:31;8.52;;;5.78;;
52274;SDS011;38228;50.940;4.024;2023-08-17T00:37:57;8.05;;;6.07;;
52274;SDS011;38228;50.940;4.024;2023-08-17T00:40:24;8.45;;;6.22;;
52274;SDS011;38228;50.940;4.024;2023-08-17T00:42:49;7.68;;;5.88;;
52274;SDS011;38228;50.940;4.024;2023-08-17T00:45:17;11.15;;;6.30;;
52274;SDS011;38228;50.940;4.024;2023-08-17T00:47:44;10.55;;;6.65;;
52274;SDS011;38228;50.940;4.024;2023-08-17T00:50:10;11.13;;;7.15;;
52274;SDS011;38228;50.940;4.024;2023-08-17T00:52:36;9.05;;;6.72;;
52274;SDS011;38228;50.940;4.024;2023-08-17T00:55:03;10.60;;;6.43;;
52274;SDS011;38228;50.940;4.024;2023-08-17T00:57:30;8.55;;;7.22;;
52274;SDS011;38228;50.940;4.024;2023-08-17T00:59:57;9.32;;;6.75;;
52274;SDS011;38228;50.940;4.024;2023-08-17T01:02:24;10.90;;;6.10;;
52274;SDS011;38228;50.940;4.024;2023-08-17T01:04:50;10.32;;;6.93;;
52274;SDS011;38228;50.940;4.024;2023-08-17T01:07:16;9.27;;;6.35;;
52274;SDS011;38228;50.940;4.024;2023-08-17T01:09:42;9.27;;;6.55;;
52274;SDS011;38228;50.940;4.024;2023-08-17T01:12:16;12.43;;;7.13;;
52274;SDS011;38228;50.940;4.024;2023-08-17T01:14:56;10.05;;;6.53;;
52274;SDS011;38228;50.940;4.024;2023-08-17T01:17:29;9.13;;;6.78;;
52274;SDS011;38228;50.940;4.024;2023-08-17T01:20:00;8.18;;;6.05;;
52274;SDS011;38228;50.940;4.024;2023-08-17T01:22:28;10.40;;;6.93;;
52274;SDS011;38228;50.940;4.024;2023-08-17T01:24:58;7.60;;;6.32;;
52274;SDS011;38228;50.940;4.024;2023-08-17T01:27:24;10.50;;;6.70;;
52274;SDS011;38228;50.940;4.024;2023-08-17T01:29:50;12.02;;;6.57;;
52274;SDS011;38228;50.940;4.024;2023-08-17T01:32:32;9.98;;;6.78;;
52274;SDS011;38228;50.940;4.024;2023-08-17T01:35:07;8.57;;;6.95;;
52274;SDS011;38228;50.940;4.024;2023-08-17T01:37:53;10.02;;;6.50;;
52274;SDS011;38228;50.940;4.024;2023-08-17T01:40:24;11.05;;;7.18;;
52274;SDS011;38228;50.940;4.024;2023-08-17T01:42:54;10.13;;;6.90;;
52274;SDS011;38228;50.940;4.024;2023-08-17T01:45:20;8.75;;;7.00;;
52274;SDS011;38228;50.940;4.024;2023-08-17T01:47:46;9.05;;;6.88;;
52274;SDS011;38228;50.940;4.024;2023-08-17T01:50:14;11.90;;;6.75;;
52274;SDS011;38228;50.940;4.024;2023-08-17T01:52:40;10.95;;;6.35;;
52274;SDS011;38228;50.940;4.024;2023-08-17T01:55:05;11.38;;;6.68;;
52274;SDS011;38228;50.940;4.024;2023-08-17T01:57:31;8.95;;;6.90;;
52274;SDS011;38228;50.940;4.024;2023-08-17T01:59:57;9.95;;;6.80;;
52274;SDS011;38228;50.940;4.024;2023-08-17T02:02:23;8.95;;;6.75;;
52274;SDS011;38228;50.940;4.024;2023-08-17T02:04:48;9.57;;;6.18;;
52274;SDS011;38228;50.940;4.024;2023-08-17T02:07:14;9.75;;;6.38;;
52274;SDS011;38228;50.940;4.024;2023-08-17T02:09:40;10.05;;;6.03;;
52274;SDS011;38228;50.940;4.024;2023-08-17T02:12:06;12.32;;;6.07;;
52274;SDS011;38228;50.940;4.024;2023-08-17T02:14:33;7.43;;;6.15;;
52274;SDS011;38228;50.940;4.024;2023-08-17T02:16:59;7.25;;;5.68;;
52274;SDS011;38228;50.940;4.024;2023-08-17T02:19:24;6.82;;;5.30;;
52274;SDS011;38228;50.940;4.024;2023-08-17T02:21:50;9.13;;;5.28;;
52274;SDS011;38228;50.940;4.024;2023-08-17T02:24:16;6.72;;;5.55;;
52274;SDS011;38228;50.940;4.024;2023-08-17T02:26:42;6.15;;;4.95;;
52274;SDS011;38228;50.940;4.024;2023-08-17T02:29:07;10.05;;;5.40;;
52274;SDS011;38228;50.940;4.024;2023-08-17T02:31:33;9.15;;;5.03;;
52274;SDS011;38228;50.940;4.024;2023-08-17T02:33:59;9.77;;;4.10;;
52274;SDS011;38228;50.940;4.024;2023-08-17T02:36:30;7.30;;;4.00;;
52274;SDS011;38228;50.940;4.024;2023-08-17T02:38:56;6.80;;;3.75;;
52274;SDS011;38228;50.940;4.024;2023-08-17T02:41:21;6.80;;;3.20;;
52274;SDS011;38228;50.940;4.024;2023-08-17T02:43:47;5.00;;;3.13;;
52274;SDS011;38228;50.940;4.024;2023-08-17T02:46:13;5.70;;;3.20;;
52274;SDS011;38228;50.940;4.024;2023-08-17T02:48:39;7.80;;;3.00;;
52274;SDS011;38228;50.940;4.024;2023-08-17T02:51:04;7.15;;;3.33;;
52274;SDS011;38228;50.940;4.024;2023-08-17T02:53:30;7.13;;;3.35;;
52274;SDS011;38228;50.940;4.024;2023-08-17T02:55:56;10.38;;;3.63;;
52274;SDS011;38228;50.940;4.024;2023-08-17T02:58:21;8.20;;;3.58;;
52274;SDS011;38228;50.940;4.024;2023-08-17T03:00:47;5.60;;;3.47;;
52274;SDS011;38228;50.940;4.024;2023-08-17T03:03:15;6.00;;;3.40;;
52274;SDS011;38228;50.940;4.024;2023-08-17T03:05:41;8.13;;;3.35;;
52274;SDS011;38228;50.940;4.024;2023-08-17T03:08:07;14.05;;;4.00;;
52274;SDS011;38228;50.940;4.024;2023-08-17T03:10:33;10.05;;;3.95;;
52274;SDS011;38228;50.940;4.024;2023-08-17T03:12:58;8.73;;;3.30;;
52274;SDS011;38228;50.940;4.024;2023-08-17T03:15:24;7.88;;;3.78;;
52274;SDS011;38228;50.940;4.024;2023-08-17T03:17:50;9.93;;;3.80;;
52274;SDS011;38228;50.940;4.024;2023-08-17T03:20:15;5.10;;;3.30;;
52274;SDS011;38228;50.940;4.024;2023-08-17T03:22:41;8.40;;;3.65;;
52274;SDS011;38228;50.940;4.024;2023-08-17T03:25:07;6.20;;;3.50;;
52274;SDS011;38228;50.940;4.024;2023-08-17T03:27:33;5.28;;;3.22;;
52274;SDS011;38228;50.940;4.024;2023-08-17T03:29:59;10.63;;;4.05;;
52274;SDS011;38228;50.940;4.024;2023-08-17T03:32:25;5.55;;;3.20;;
52274;SDS011;38228;50.940;4.024;2023-08-17T03:34:50;9.70;;;3.65;;
52274;SDS011;38228;50.940;4.024;2023-08-17T03:37:16;8.40;;;3.92;;
52274;SDS011;38228;50.940;4.024;2023-08-17T03:39:42;7.25;;;3.72;;
52274;SDS011;38228;50.940;4.024;2023-08-17T03:42:08;8.38;;;3.72;;
52274;SDS011;38228;50.940;4.024;2023-08-17T03:44:33;13.77;;;4.00;;
52274;SDS011;38228;50.940;4.024;2023-08-17T03:46:59;8.65;;;3.70;;
52274;SDS011;38228;50.940;4.024;2023-08-17T03:49:25;10.13;;;3.95;;
52274;SDS011;38228;50.940;4.024;2023-08-17T03:51:50;8.73;;;3.80;;
52274;SDS011;38228;50.940;4.024;2023-08-17T03:54:16;8.57;;;3.78;;
52274;SDS011;38228;50.940;4.024;2023-08-17T03:56:42;6.45;;;3.33;;
52274;SDS011;38228;50.940;4.024;2023-08-17T03:59:08;6.40;;;3.80;;
52274;SDS011;38228;50.940;4.024;2023-08-17T04:01:34;6.93;;;3.90;;
52274;SDS011;38228;50.940;4.024;2023-08-17T04:03:59;10.75;;;4.07;;
52274;SDS011;38228;50.940;4.024;2023-08-17T04:06:25;7.13;;;3.88;;
52274;SDS011;38228;50.940;4.024;2023-08-17T04:08:51;9.32;;;4.38;;
52274;SDS011;38228;50.940;4.024;2023-08-17T04:11:16;12.68;;;4.13;;
52274;SDS011;38228;50.940;4.024;2023-08-17T04:13:42;12.93;;;4.40;;
52274;SDS011;38228;50.940;4.024;2023-08-17T04:16:08;10.50;;;4.00;;
52274;SDS011;38228;50.940;4.024;2023-08-17T04:18:33;8.57;;;3.78;;
52274;SDS011;38228;50.940;4.024;2023-08-17T04:20:59;10.27;;;4.00;;
52274;SDS011;38228;50.940;4.024;2023-08-17T04:23:25;9.82;;;3.97;;
52274;SDS011;38228;50.940;4.024;2023-08-17T04:25:50;7.50;;;3.88;;
52274;SDS011;38228;50.940;4.024;2023-08-17T04:28:18;8.95;;;3.72;;
52274;SDS011;38228;50.940;4.024;2023-08-17T04:30:44;6.00;;;3.90;;
52274;SDS011;38228;50.940;4.024;2023-08-17T04:33:10;7.93;;;4.05;;
52274;SDS011;38228;50.940;4.024;2023-08-17T04:35:35;7.68;;;3.90;;
52274;SDS011;38228;50.940;4.024;2023-08-17T04:38:01;12.63;;;4.32;;
52274;SDS011;38228;50.940;4.024;2023-08-17T04:40:27;8.68;;;3.78;;
52274;SDS011;38228;50.940;4.024;2023-08-17T04:42:53;11.25;;;4.22;;
52274;SDS011;38228;50.940;4.024;2023-08-17T04:45:19;8.65;;;3.97;;
52274;SDS011;38228;50.940;4.024;2023-08-17T04:47:44;9.80;;;4.15;;
52274;SDS011;38228;50.940;4.024;2023-08-17T04:50:10;9.57;;;4.50;;
52274;SDS011;38228;50.940;4.024;2023-08-17T04:52:41;13.00;;;4.43;;
52274;SDS011;38228;50.940;4.024;2023-08-17T04:55:09;10.65;;;4.10;;
52274;SDS011;38228;50.940;4.024;2023-08-17T04:57:35;9.18;;;4.40;;
52274;SDS011;38228;50.940;4.024;2023-08-17T05:00:01;17.75;;;4.85;;
52274;SDS011;38228;50.940;4.024;2023-08-17T05:02:28;10.25;;;4.28;;
52274;SDS011;38228;50.940;4.024;2023-08-17T05:04:54;9.95;;;4.32;;
52274;SDS011;38228;50.940;4.024;2023-08-17T05:07:19;10.82;;;4.93;;
52274;SDS011;38228;50.940;4.024;2023-08-17T05:09:45;11.85;;;4.20;;
52274;SDS011;38228;50.940;4.024;2023-08-17T05:12:11;12.43;;;4.25;;
52274;SDS011;38228;50.940;4.024;2023-08-17T05:14:36;11.95;;;4.43;;
52274;SDS011;38228;50.940;4.024;2023-08-17T05:17:02;11.10;;;4.78;;
52274;SDS011;38228;50.940;4.024;2023-08-17T05:19:28;8.18;;;4.20;;
52274;SDS011;38228;50.940;4.024;2023-08-17T05:21:54;9.05;;;4.47;;
52274;SDS011;38228;50.940;4.024;2023-08-17T05:24:19;11.45;;;4.45;;
52274;SDS011;38228;50.940;4.024;2023-08-17T05:26:45;13.30;;;5.13;;
52274;SDS011;38228;50.940;4.024;2023-08-17T05:29:11;11.75;;;4.55;;
52274;SDS011;38228;50.940;4.024;2023-08-17T05:31:37;11.65;;;4.47;;
52274;SDS011;38228;50.940;4.024;2023-08-17T05:34:02;13.63;;;4.38;;
52274;SDS011;38228;50.940;4.024;2023-08-17T05:36:28;9.40;;;4.75;;
52274;SDS011;38228;50.940;4.024;2023-08-17T05:38:54;11.68;;;4.30;;
52274;SDS011;38228;50.940;4.024;2023-08-17T05:41:20;11.05;;;4.30;;
52274;SDS011;38228;50.940;4.024;2023-08-17T05:43:45;10.32;;;4.03;;
52274;SDS011;38228;50.940;4.024;2023-08-17T05:46:13;9.98;;;4.18;;
52274;SDS011;38228;50.940;4.024;2023-08-17T05:48:39;10.25;;;4.15;;
52274;SDS011;38228;50.940;4.024;2023-08-17T05:51:06;13.85;;;4.85;;
52274;SDS011;38228;50.940;4.024;2023-08-17T05:53:31;13.93;;;4.47;;
52274;SDS011;38228;50.940;4.024;2023-08-17T05:55:57;13.05;;;4.05;;
52274;SDS011;38228;50.940;4.024;2023-08-17T05:58:23;10.98;;;4.32;;
52274;SDS011;38228;50.940;4.024;2023-08-17T06:00:49;10.07;;;4.18;;
52274;SDS011;38228;50.940;4.024;2023-08-17T06:03:14;11.75;;;4.40;;
52274;SDS011;38228;50.940;4.024;2023-08-17T06:05:40;11.10;;;4.28;;
52274;SDS011;38228;50.940;4.024;2023-08-17T06:08:06;13.05;;;4.53;;
52274;SDS011;38228;50.940;4.024;2023-08-17T06:10:32;9.75;;;3.90;;
52274;SDS011;38228;50.940;4.024;2023-08-17T06:12:57;8.98;;;3.63;;
52274;SDS011;38228;50.940;4.024;2023-08-17T06:15:23;9.20;;;3.63;;
52274;SDS011;38228;50.940;4.024;2023-08-17T06:17:50;8.27;;;3.58;;
52274;SDS011;38228;50.940;4.024;2023-08-17T06:20:16;7.47;;;3.67;;
52274;SDS011;38228;50.940;4.024;2023-08-17T06:22:42;7.88;;;3.38;;
52274;SDS011;38228;50.940;4.024;2023-08-17T06:25:08;8.73;;;3.30;;
52274;SDS011;38228;50.940;4.024;2023-08-17T06:27:34;8.50;;;3.65;;
52274;SDS011;38228;50.940;4.024;2023-08-17T06:30:01;9.13;;;3.00;;
52274;SDS011;38228;50.940;4.024;2023-08-17T06:32:28;9.75;;;3.22;;
52274;SDS011;38228;50.940;4.024;2023-08-17T06:34:54;13.07;;;3.60;;
52274;SDS011;38228;50.940;4.024;2023-08-17T06:37:20;12.55;;;3.45;;
52274;SDS011;38228;50.940;4.024;2023-08-17T06:39:46;7.00;;;3.17;;
52274;SDS011;38228;50.940;4.024;2023-08-17T06:42:11;8.43;;;3.10;;
52274;SDS011;38228;50.940;4.024;2023-08-17T06:44:37;7.43;;;2.88;;
52274;SDS011;38228;50.940;4.024;2023-08-17T06:47:03;5.68;;;2.67;;
52274;SDS011;38228;50.940;4.024;2023-08-17T06:49:30;9.90;;;3.00;;
52274;SDS011;38228;50.940;4.024;2023-08-17T06:51:56;5.50;;;2.80;;
52274;SDS011;38228;50.940;4.024;2023-08-17T06:54:21;6.72;;;3.00;;
52274;SDS011;38228;50.940;4.024;2023-08-17T06:56:47;5.50;;;2.63;;
52274;SDS011;38228;50.940;4.024;2023-08-17T06:59:13;7.93;;;3.22;;
52274;SDS011;38228;50.940;4.024;2023-08-17T07:01:39;7.22;;;2.88;;
52274;SDS011;38228;50.940;4.024;2023-08-17T07:04:04;6.82;;;2.88;;
52274;SDS011;38228;50.940;4.024;2023-08-17T07:06:30;8.85;;;3.35;;
52274;SDS011;38228;50.940;4.024;2023-08-17T07:08:56;6.10;;;3.13;;
52274;SDS011;38228;50.940;4.024;2023-08-17T07:11:21;5.18;;;3.30;;
52274;SDS011;38228;50.940;4.024;2023-08-17T07:13:47;8.20;;;3.30;;
52274;SDS011;38228;50.940;4.024;2023-08-17T07:16:13;6.53;;;2.90;;
52274;SDS011;38228;50.940;4.024;2023-08-17T07:18:39;7.18;;;3.17;;
52274;SDS011;38228;50.940;4.024;2023-08-17T07:21:05;9.50;;;2.88;;
52274;SDS011;38228;50.940;4.024;2023-08-17T07:23:31;8.68;;;3.30;;
52274;SDS011;38228;50.940;4.024;2023-08-17T07:25:57;12.57;;;3.70;;
52274;SDS011;38228;50.940;4.024;2023-08-17T07:28:22;15.00;;;4.05;;
52274;SDS011;38228;50.940;4.024;2023-08-17T07:30:48;8.05;;;3.92;;
52274;SDS011;38228;50.940;4.024;2023-08-17T07:33:14;14.85;;;4.07;;
52274;SDS011;38228;50.940;4.024;2023-08-17T07:35:40;12.27;;;4.28;;
52274;SDS011;38228;50.940;4.024;2023-08-17T07:38:05;9.00;;;3.70;;
52274;SDS011;38228;50.940;4.024;2023-08-17T07:40:31;8.73;;;4.20;;
52274;SDS011;38228;50.940;4.024;2023-08-17T07:42:57;12.48;;;3.90;;
52274;SDS011;38228;50.940;4.024;2023-08-17T07:45:22;9.02;;;3.97;;
52274;SDS011;38228;50.940;4.024;2023-08-17T07:47:48;11.32;;;4.78;;
52274;SDS011;38228;50.940;4.024;2023-08-17T07:50:14;10.07;;;4.20;;
52274;SDS011;38228;50.940;4.024;2023-08-17T07:52:39;11.25;;;4.00;;
52274;SDS011;38228;50.940;4.024;2023-08-17T07:55:05;10.77;;;3.95;;
52274;SDS011;38228;50.940;4.024;2023-08-17T07:57:31;12.80;;;3.85;;
52274;SDS011;38228;50.940;4.024;2023-08-17T07:59:57;13.70;;;4.75;;
52274;SDS011;38228;50.940;4.024;2023-08-17T08:02:22;5.82;;;3.72;;
52274;SDS011;38228;50.940;4.024;2023-08-17T08:04:48;8.48;;;3.90;;
52274;SDS011;38228;50.940;4.024;2023-08-17T08:07:14;10.85;;;4.07;;
52274;SDS011;38228;50.940;4.024;2023-08-17T08:09:40;12.02;;;4.15;;
52274;SDS011;38228;50.940;4.024;2023-08-17T08:12:05;13.85;;;4.43;;
52274;SDS011;38228;50.940;4.024;2023-08-17T08:14:33;10.50;;;4.25;;
52274;SDS011;38228;50.940;4.024;2023-08-17T08:16:59;8.75;;;4.30;;
52274;SDS011;38228;50.940;4.024;2023-08-17T08:19:25;14.02;;;4.85;;
52274;SDS011;38228;50.940;4.024;2023-08-17T08:21:50;9.00;;;4.60;;
52274;SDS011;38228;50.940;4.024;2023-08-17T08:24:16;11.48;;;4.72;;
52274;SDS011;38228;50.940;4.024;2023-08-17T08:26:42;8.85;;;4.35;;
52274;SDS011;38228;50.940;4.024;2023-08-17T08:29:07;9.75;;;4.28;;
52274;SDS011;38228;50.940;4.024;2023-08-17T08:31:33;11.60;;;4.43;;
52274;SDS011;38228;50.940;4.024;2023-08-17T08:33:58;11.35;;;5.20;;
52274;SDS011;38228;50.940;4.024;2023-08-17T08:36:24;7.68;;;4.82;;
52274;SDS011;38228;50.940;4.024;2023-08-17T08:38:50;11.80;;;4.78;;
52274;SDS011;38228;50.940;4.024;2023-08-17T08:41:16;10.57;;;4.63;;
52274;SDS011;38228;50.940;4.024;2023-08-17T08:43:42;7.10;;;4.55;;
52274;SDS011;38228;50.940;4.024;2023-08-17T08:46:08;7.82;;;4.55;;
52274;SDS011;38228;50.940;4.024;2023-08-17T08:48:34;10.80;;;4.07;;
52274;SDS011;38228;50.940;4.024;2023-08-17T08:51:03;10.82;;;4.70;;
52274;SDS011;38228;50.940;4.024;2023-08-17T08:53:38;10.63;;;4.90;;
52274;SDS011;38228;50.940;4.024;2023-08-17T08:56:10;8.85;;;4.50;;
52274;SDS011;38228;50.940;4.024;2023-08-17T08:58:40;12.65;;;4.75;;
52274;SDS011;38228;50.940;4.024;2023-08-17T09:01:07;8.20;;;4.25;;
52274;SDS011;38228;50.940;4.024;2023-08-17T09:03:35;8.63;;;4.40;;
52274;SDS011;38228;50.940;4.024;2023-08-17T09:06:01;10.63;;;4.63;;
52274;SDS011;38228;50.940;4.024;2023-08-17T09:08:29;9.98;;;4.72;;
52274;SDS011;38228;50.940;4.024;2023-08-17T09:10:55;13.10;;;4.80;;
52274;SDS011;38228;50.940;4.024;2023-08-17T09:13:21;11.73;;;5.30;;
52274;SDS011;38228;50.940;4.024;2023-08-17T09:15:47;9.70;;;5.40;;
52274;SDS011;38228;50.940;4.024;2023-08-17T09:18:12;10.95;;;5.50;;
52274;SDS011;38228;50.940;4.024;2023-08-17T09:20:39;13.52;;;5.57;;
52274;SDS011;38228;50.940;4.024;2023-08-17T09:23:17;7.80;;;4.53;;
52274;SDS011;38228;50.940;4.024;2023-08-17T09:25:46;14.93;;;4.72;;
52274;SDS011;38228;50.940;4.024;2023-08-17T09:28:14;11.93;;;4.70;;
52274;SDS011;38228;50.940;4.024;2023-08-17T09:33:24;8.75;;;4.35;;
52274;SDS011;38228;50.940;4.024;2023-08-17T09:35:51;8.00;;;3.90;;
52274;SDS011;38228;50.940;4.024;2023-08-17T09:38:18;13.27;;;4.75;;
52274;SDS011;38228;50.940;4.024;2023-08-17T09:40:45;10.60;;;4.18;;
52274;SDS011;38228;50.940;4.024;2023-08-17T09:43:12;11.20;;;5.00;;
52274;SDS011;38228;50.940;4.024;2023-08-17T09:45:39;10.45;;;5.10;;
52274;SDS011;38228;50.940;4.024;2023-08-17T09:48:06;9.10;;;4.78;;
52274;SDS011;38228;50.940;4.024;2023-08-17T09:50:35;10.15;;;5.13;;
52274;SDS011;38228;50.940;4.024;2023-08-17T09:53:03;9.25;;;5.65;;
52274;SDS011;38228;50.940;4.024;2023-08-17T09:55:32;11.02;;;5.22;;
52274;SDS011;38228;50.940;4.024;2023-08-17T09:57:59;13.15;;;5.07;;
52274;SDS011;38228;50.940;4.024;2023-08-17T10:00:25;11.32;;;4.85;;
52274;SDS011;38228;50.940;4.024;2023-08-17T10:02:52;9.43;;;4.90;;
52274;SDS011;38228;50.940;4.024;2023-08-17T10:05:19;8.70;;;4.82;;
52274;SDS011;38228;50.940;4.024;2023-08-17T10:07:54;8.63;;;4.50;;
52274;SDS011;38228;50.940;4.024;2023-08-17T10:10:26;9.27;;;4.60;;
52274;SDS011;38228;50.940;4.024;2023-08-17T10:15:25;10.00;;;5.22;;
52274;SDS011;38228;50.940;4.024;2023-08-17T10:18:07;13.70;;;5.15;;
52274;SDS011;38228;50.940;4.024;2023-08-17T10:20:40;9.90;;;5.67;;
52274;SDS011;38228;50.940;4.024;2023-08-17T10:23:12;13.25;;;5.93;;
52274;SDS011;38228;50.940;4.024;2023-08-17T10:25:41;9.73;;;5.10;;
52274;SDS011;38228;50.940;4.024;2023-08-17T10:28:08;10.40;;;5.80;;
52274;SDS011;38228;50.940;4.024;2023-08-17T10:30:39;10.77;;;5.75;;
52274;SDS011;38228;50.940;4.024;2023-08-17T10:33:05;12.52;;;5.70;;
52274;SDS011;38228;50.940;4.024;2023-08-17T10:35:34;10.05;;;6.03;;
52274;SDS011;38228;50.940;4.024;2023-08-17T10:38:02;14.07;;;5.82;;
52274;SDS011;38228;50.940;4.024;2023-08-17T10:40:34;8.50;;;5.35;;
52274;SDS011;38228;50.940;4.024;2023-08-17T10:43:01;9.63;;;6.50;;
52274;SDS011;38228;50.940;4.024;2023-08-17T10:45:31;13.70;;;6.30;;
52274;SDS011;38228;50.940;4.024;2023-08-17T10:48:00;12.50;;;6.00;;
52274;SDS011;38228;50.940;4.024;2023-08-17T10:50:26;9.27;;;6.22;;
52274;SDS011;38228;50.940;4.024;2023-08-17T10:52:53;8.68;;;5.88;;
52274;SDS011;38228;50.940;4.024;2023-08-17T10:55:34;14.82;;;6.25;;
52274;SDS011;38228;50.940;4.024;2023-08-17T10:58:09;9.82;;;7.00;;
52274;SDS011;38228;50.940;4.024;2023-08-17T11:00:38;10.25;;;6.22;;
52274;SDS011;38228;50.940;4.024;2023-08-17T11:03:05;11.75;;;5.80;;
52274;SDS011;38228;50.940;4.024;2023-08-17T11:05:40;8.82;;;6.05;;
52274;SDS011;38228;50.940;4.024;2023-08-17T11:10:47;11.70;;;6.57;;
52274;SDS011;38228;50.940;4.024;2023-08-17T11:13:21;10.27;;;5.65;;
52274;SDS011;38228;50.940;4.024;2023-08-17T11:15:48;8.55;;;5.45;;
52274;SDS011;38228;50.940;4.024;2023-08-17T11:18:14;11.93;;;6.28;;
52274;SDS011;38228;50.940;4.024;2023-08-17T11:20:40;8.93;;;5.47;;
52274;SDS011;38228;50.940;4.024;2023-08-17T11:23:07;8.55;;;6.10;;
52274;SDS011;38228;50.940;4.024;2023-08-17T11:25:33;11.05;;;6.85;;
52274;SDS011;38228;50.940;4.024;2023-08-17T11:28:00;13.43;;;6.63;;
52274;SDS011;38228;50.940;4.024;2023-08-17T11:30:26;7.90;;;6.03;;
52274;SDS011;38228;50.940;4.024;2023-08-17T11:32:53;9.32;;;6.78;;
52274;SDS011;38228;50.940;4.024;2023-08-17T11:35:20;11.52;;;6.47;;
52274;SDS011;38228;50.940;4.024;2023-08-17T11:37:47;9.55;;;6.80;;
52274;SDS011;38228;50.940;4.024;2023-08-17T11:40:14;10.63;;;6.30;;
52274;SDS011;38228;50.940;4.024;2023-08-17T11:42:40;10.02;;;6.15;;
52274;SDS011;38228;50.940;4.024;2023-08-17T11:45:08;11.13;;;6.93;;
52274;SDS011;38228;50.940;4.024;2023-08-17T11:47:39;10.82;;;7.13;;
52274;SDS011;38228;50.940;4.024;2023-08-17T11:50:06;16.52;;;7.20;;
52274;SDS011;38228;50.940;4.024;2023-08-17T11:52:34;13.98;;;8.50;;
52274;SDS011;38228;50.940;4.024;2023-08-17T11:55:04;11.48;;;7.30;;
52274;SDS011;38228;50.940;4.024;2023-08-17T11:57:35;10.30;;;7.65;;
52274;SDS011;38228;50.940;4.024;2023-08-17T12:00:02;10.73;;;8.80;;
52274;SDS011;38228;50.940;4.024;2023-08-17T12:02:31;12.40;;;8.57;;
52274;SDS011;38228;50.940;4.024;2023-08-17T12:04:58;12.55;;;9.10;;
52274;SDS011;38228;50.940;4.024;2023-08-17T12:07:31;13.15;;;8.82;;
52274;SDS011;38228;50.940;4.024;2023-08-17T12:09:57;13.52;;;9.10;;
52274;SDS011;38228;50.940;4.024;2023-08-17T12:12:23;13.02;;;8.88;;
52274;SDS011;38228;50.940;4.024;2023-08-17T12:14:49;12.93;;;9.10;;
52274;SDS011;38228;50.940;4.024;2023-08-17T12:17:15;13.88;;;10.98;;
52274;SDS011;38228;50.940;4.024;2023-08-17T12:19:43;10.88;;;9.00;;
52274;SDS011;38228;50.940;4.024;2023-08-17T12:22:09;13.77;;;9.65;;
52274;SDS011;38228;50.940;4.024;2023-08-17T12:24:35;9.45;;;8.25;;
52274;SDS011;38228;50.940;4.024;2023-08-17T12:27:02;15.50;;;10.23;;
52274;SDS011;38228;50.940;4.024;2023-08-17T12:29:28;10.50;;;8.35;;
52274;SDS011;38228;50.940;4.024;2023-08-17T12:31:56;13.13;;;9.82;;
52274;SDS011;38228;50.940;4.024;2023-08-17T12:34:23;14.25;;;9.68;;
52274;SDS011;38228;50.940;4.024;2023-08-17T12:36:49;14.07;;;9.82;;
52274;SDS011;38228;50.940;4.024;2023-08-17T12:39:15;13.82;;;10.63;;
52274;SDS011;38228;50.940;4.024;2023-08-17T12:41:41;12.27;;;10.70;;
52274;SDS011;38228;50.940;4.024;2023-08-17T12:44:08;13.23;;;10.70;;
52274;SDS011;38228;50.940;4.024;2023-08-17T12:46:34;12.60;;;10.20;;
52274;SDS011;38228;50.940;4.024;2023-08-17T12:49:00;11.48;;;9.60;;
52274;SDS011;38228;50.940;4.024;2023-08-17T12:51:25;11.95;;;10.32;;
52274;SDS011;38228;50.940;4.024;2023-08-17T12:53:51;16.08;;;10.95;;
52274;SDS011;38228;50.940;4.024;2023-08-17T12:56:17;13.52;;;10.35;;
52274;SDS011;38228;50.940;4.024;2023-08-17T12:58:42;16.17;;;10.27;;
52274;SDS011;38228;50.940;4.024;2023-08-17T13:01:08;15.63;;;11.38;;
52274;SDS011;38228;50.940;4.024;2023-08-17T13:03:34;14.30;;;10.15;;
52274;SDS011;38228;50.940;4.024;2023-08-17T13:06:00;12.73;;;10.38;;
52274;SDS011;38228;50.940;4.024;2023-08-17T13:08:25;11.88;;;10.15;;
52274;SDS011;38228;50.940;4.024;2023-08-17T13:10:51;12.52;;;10.70;;
52274;SDS011;38228;50.940;4.024;2023-08-17T13:13:17;13.18;;;10.27;;
52274;SDS011;38228;50.940;4.024;2023-08-17T13:15:43;15.82;;;9.48;;
52274;SDS011;38228;50.940;4.024;2023-08-17T13:18:08;15.55;;;10.05;;
52274;SDS011;38228;50.940;4.024;2023-08-17T13:20:34;14.57;;;10.38;;
52274;SDS011;38228;50.940;4.024;2023-08-17T13:23:02;18.70;;;11.50;;
52274;SDS011;38228;50.940;4.024;2023-08-17T13:25:27;14.07;;;10.70;;
52274;SDS011;38228;50.940;4.024;2023-08-17T13:27:53;15.80;;;11.93;;
52274;SDS011;38228;50.940;4.024;2023-08-17T13:30:19;14.27;;;10.30;;
52274;SDS011;38228;50.940;4.024;2023-08-17T13:32:44;12.18;;;10.88;;
52274;SDS011;38228;50.940;4.024;2023-08-17T13:35:10;12.68;;;10.43;;
52274;SDS011;38228;50.940;4.024;2023-08-17T13:37:36;11.82;;;10.23;;
52274;SDS011;38228;50.940;4.024;2023-08-17T13:40:03;15.98;;;10.55;;
52274;SDS011;38228;50.940;4.024;2023-08-17T13:42:29;14.90;;;10.98;;
52274;SDS011;38228;50.940;4.024;2023-08-17T13:44:55;15.10;;;10.15;;
52274;SDS011;38228;50.940;4.024;2023-08-17T13:47:20;16.02;;;10.50;;
52274;SDS011;38228;50.940;4.024;2023-08-17T13:49:46;14.88;;;9.13;;
52274;SDS011;38228;50.940;4.024;2023-08-17T13:52:12;15.45;;;9.40;;
52274;SDS011;38228;50.940;4.024;2023-08-17T13:54:38;15.30;;;10.93;;
52274;SDS011;38228;50.940;4.024;2023-08-17T13:57:04;15.38;;;10.57;;
52274;SDS011;38228;50.940;4.024;2023-08-17T13:59:29;15.55;;;10.50;;
52274;SDS011;38228;50.940;4.024;2023-08-17T14:01:55;15.15;;;9.93;;
52274;SDS011;38228;50.940;4.024;2023-08-17T14:04:21;15.63;;;10.93;;
52274;SDS011;38228;50.940;4.024;2023-08-17T14:06:47;14.68;;;10.95;;
52274;SDS011;38228;50.940;4.024;2023-08-17T14:09:13;13.98;;;9.55;;
52274;SDS011;38228;50.940;4.024;2023-08-17T14:11:39;17.90;;;10.20;;
52274;SDS011;38228;50.940;4.024;2023-08-17T14:14:05;14.98;;;10.65;;
52274;SDS011;38228;50.940;4.024;2023-08-17T14:16:30;13.88;;;10.68;;
52274;SDS011;38228;50.940;4.024;2023-08-17T14:18:56;15.98;;;10.75;;
52274;SDS011;38228;50.940;4.024;2023-08-17T14:21:22;16.88;;;10.50;;
52274;SDS011;38228;50.940;4.024;2023-08-17T14:23:48;16.60;;;10.38;;
52274;SDS011;38228;50.940;4.024;2023-08-17T14:26:14;14.30;;;10.57;;
52274;SDS011;38228;50.940;4.024;2023-08-17T14:28:40;15.27;;;10.65;;
52274;SDS011;38228;50.940;4.024;2023-08-17T14:31:06;12.32;;;9.43;;
52274;SDS011;38228;50.940;4.024;2023-08-17T14:33:31;14.55;;;10.30;;
52274;SDS011;38228;50.940;4.024;2023-08-17T14:36:00;19.02;;;11.27;;
52274;SDS011;38228;50.940;4.024;2023-08-17T14:38:26;17.20;;;11.48;;
52274;SDS011;38228;50.940;4.024;2023-08-17T14:40:52;14.65;;;11.07;;
52274;SDS011;38228;50.940;4.024;2023-08-17T14:43:17;14.30;;;10.63;;